RJAZ(METAR)
05/30 16:00
RJAZ 300700Z 13005KT 9999 FEW021 BKNXXX 23/17 Q1020 RMK A3013=
戻る
トップページへ戻る
IMOC Co,.Ltd.